sensor_id;sensor_type;location;lat;lon;timestamp;P1;durP1;ratioP1;P2;durP2;ratioP2
47053;SDS011;32811;52.382;5.270;2022-12-18T00:01:14;51.42;;;20.50;;
47053;SDS011;32811;52.382;5.270;2022-12-18T00:03:41;53.63;;;22.20;;
47053;SDS011;32811;52.382;5.270;2022-12-18T00:06:09;52.55;;;21.25;;
47053;SDS011;32811;52.382;5.270;2022-12-18T00:08:36;60.63;;;22.67;;
47053;SDS011;32811;52.382;5.270;2022-12-18T00:11:06;48.95;;;21.38;;
47053;SDS011;32811;52.382;5.270;2022-12-18T00:13:35;46.75;;;21.40;;
47053;SDS011;32811;52.382;5.270;2022-12-18T00:16:03;52.35;;;23.33;;
47053;SDS011;32811;52.382;5.270;2022-12-18T00:18:31;49.22;;;22.05;;
47053;SDS011;32811;52.382;5.270;2022-12-18T00:20:59;52.95;;;22.48;;
47053;SDS011;32811;52.382;5.270;2022-12-18T00:23:27;47.25;;;20.08;;
47053;SDS011;32811;52.382;5.270;2022-12-18T00:25:58;46.80;;;20.50;;
47053;SDS011;32811;52.382;5.270;2022-12-18T00:28:26;51.78;;;21.25;;
47053;SDS011;32811;52.382;5.270;2022-12-18T00:31:03;49.58;;;21.08;;
47053;SDS011;32811;52.382;5.270;2022-12-18T00:33:32;53.13;;;22.70;;
47053;SDS011;32811;52.382;5.270;2022-12-18T00:36:02;51.60;;;21.45;;
47053;SDS011;32811;52.382;5.270;2022-12-18T00:38:30;57.58;;;24.10;;
47053;SDS011;32811;52.382;5.270;2022-12-18T00:40:58;43.30;;;21.45;;
47053;SDS011;32811;52.382;5.270;2022-12-18T00:43:25;50.08;;;22.83;;
47053;SDS011;32811;52.382;5.270;2022-12-18T00:45:52;43.03;;;21.55;;
47053;SDS011;32811;52.382;5.270;2022-12-18T00:48:19;49.75;;;22.38;;
47053;SDS011;32811;52.382;5.270;2022-12-18T00:50:47;50.97;;;21.05;;
47053;SDS011;32811;52.382;5.270;2022-12-18T00:53:15;45.95;;;21.55;;
47053;SDS011;32811;52.382;5.270;2022-12-18T00:55:42;53.38;;;22.00;;
47053;SDS011;32811;52.382;5.270;2022-12-18T00:58:14;52.78;;;22.10;;
47053;SDS011;32811;52.382;5.270;2022-12-18T01:00:42;53.05;;;22.67;;
47053;SDS011;32811;52.382;5.270;2022-12-18T01:03:12;53.83;;;22.77;;
47053;SDS011;32811;52.382;5.270;2022-12-18T01:05:42;49.85;;;22.35;;
47053;SDS011;32811;52.382;5.270;2022-12-18T01:08:09;56.78;;;24.42;;
47053;SDS011;32811;52.382;5.270;2022-12-18T01:10:36;50.55;;;19.45;;
47053;SDS011;32811;52.382;5.270;2022-12-18T01:13:05;51.08;;;23.25;;
47053;SDS011;32811;52.382;5.270;2022-12-18T01:15:33;48.10;;;21.42;;
47053;SDS011;32811;52.382;5.270;2022-12-18T01:18:00;48.08;;;21.60;;
47053;SDS011;32811;52.382;5.270;2022-12-18T01:20:27;54.03;;;23.83;;
47053;SDS011;32811;52.382;5.270;2022-12-18T01:22:54;54.42;;;22.20;;
47053;SDS011;32811;52.382;5.270;2022-12-18T01:25:21;54.75;;;20.52;;
47053;SDS011;32811;52.382;5.270;2022-12-18T01:27:48;49.25;;;22.00;;
47053;SDS011;32811;52.382;5.270;2022-12-18T01:30:14;45.42;;;21.70;;
47053;SDS011;32811;52.382;5.270;2022-12-18T01:32:41;43.15;;;19.80;;
47053;SDS011;32811;52.382;5.270;2022-12-18T01:35:08;50.33;;;22.10;;
47053;SDS011;32811;52.382;5.270;2022-12-18T01:37:35;46.80;;;20.90;;
47053;SDS011;32811;52.382;5.270;2022-12-18T01:40:02;57.15;;;22.42;;
47053;SDS011;32811;52.382;5.270;2022-12-18T01:42:30;49.20;;;22.40;;
47053;SDS011;32811;52.382;5.270;2022-12-18T01:47:33;50.95;;;23.02;;
47053;SDS011;32811;52.382;5.270;2022-12-18T01:50:13;50.30;;;21.10;;
47053;SDS011;32811;52.382;5.270;2022-12-18T01:52:48;54.88;;;22.92;;
47053;SDS011;32811;52.382;5.270;2022-12-18T01:55:18;54.60;;;22.63;;
47053;SDS011;32811;52.382;5.270;2022-12-18T01:57:47;50.00;;;20.88;;
47053;SDS011;32811;52.382;5.270;2022-12-18T02:00:17;47.97;;;20.52;;
47053;SDS011;32811;52.382;5.270;2022-12-18T02:02:46;53.67;;;22.15;;
47053;SDS011;32811;52.382;5.270;2022-12-18T02:05:16;48.90;;;21.55;;
47053;SDS011;32811;52.382;5.270;2022-12-18T02:08:24;39.10;;;16.85;;
47053;SDS011;32811;52.382;5.270;2022-12-18T02:13:46;47.28;;;20.35;;
47053;SDS011;32811;52.382;5.270;2022-12-18T02:19:31;57.22;;;23.88;;
47053;SDS011;32811;52.382;5.270;2022-12-18T02:24:57;55.85;;;22.92;;
47053;SDS011;32811;52.382;5.270;2022-12-18T02:27:25;50.70;;;21.30;;
47053;SDS011;32811;52.382;5.270;2022-12-18T02:29:57;47.28;;;21.45;;
47053;SDS011;32811;52.382;5.270;2022-12-18T02:32:27;48.05;;;20.08;;
47053;SDS011;32811;52.382;5.270;2022-12-18T02:34:57;50.55;;;21.73;;
47053;SDS011;32811;52.382;5.270;2022-12-18T02:37:26;48.97;;;21.40;;
47053;SDS011;32811;52.382;5.270;2022-12-18T02:39:55;49.10;;;22.88;;
47053;SDS011;32811;52.382;5.270;2022-12-18T02:42:25;54.45;;;23.45;;
47053;SDS011;32811;52.382;5.270;2022-12-18T02:44:55;60.20;;;22.85;;
47053;SDS011;32811;52.382;5.270;2022-12-18T02:47:24;59.10;;;23.70;;
47053;SDS011;32811;52.382;5.270;2022-12-18T02:55:13;50.40;;;22.05;;
47053;SDS011;32811;52.382;5.270;2022-12-18T03:00:19;48.55;;;21.40;;
47053;SDS011;32811;52.382;5.270;2022-12-18T03:05:47;51.78;;;21.90;;
47053;SDS011;32811;52.382;5.270;2022-12-18T03:08:19;50.88;;;21.08;;
47053;SDS011;32811;52.382;5.270;2022-12-18T03:10:55;52.70;;;21.17;;
47053;SDS011;32811;52.382;5.270;2022-12-18T03:13:33;47.42;;;19.70;;
47053;SDS011;32811;52.382;5.270;2022-12-18T03:16:05;52.28;;;22.05;;
47053;SDS011;32811;52.382;5.270;2022-12-18T03:18:38;57.28;;;23.95;;
47053;SDS011;32811;52.382;5.270;2022-12-18T03:21:12;38.40;;;17.98;;
47053;SDS011;32811;52.382;5.270;2022-12-18T03:23:44;47.30;;;21.85;;
47053;SDS011;32811;52.382;5.270;2022-12-18T03:26:17;43.88;;;20.92;;
47053;SDS011;32811;52.382;5.270;2022-12-18T03:28:53;51.53;;;20.33;;
47053;SDS011;32811;52.382;5.270;2022-12-18T03:31:26;51.10;;;22.27;;
47053;SDS011;32811;52.382;5.270;2022-12-18T03:33:57;50.33;;;19.40;;
47053;SDS011;32811;52.382;5.270;2022-12-18T03:36:28;44.05;;;20.60;;
47053;SDS011;32811;52.382;5.270;2022-12-18T03:38:57;55.22;;;21.23;;
47053;SDS011;32811;52.382;5.270;2022-12-18T03:41:28;48.05;;;19.00;;
47053;SDS011;32811;52.382;5.270;2022-12-18T03:46:28;47.40;;;20.85;;
47053;SDS011;32811;52.382;5.270;2022-12-18T03:49:14;47.65;;;21.60;;
47053;SDS011;32811;52.382;5.270;2022-12-18T03:51:48;40.55;;;19.58;;
47053;SDS011;32811;52.382;5.270;2022-12-18T03:54:22;46.85;;;20.60;;
47053;SDS011;32811;52.382;5.270;2022-12-18T03:56:51;53.47;;;22.20;;
47053;SDS011;32811;52.382;5.270;2022-12-18T03:59:23;48.75;;;21.90;;
47053;SDS011;32811;52.382;5.270;2022-12-18T04:01:52;44.10;;;18.70;;
47053;SDS011;32811;52.382;5.270;2022-12-18T04:04:24;50.78;;;21.17;;
47053;SDS011;32811;52.382;5.270;2022-12-18T04:06:52;49.50;;;20.48;;
47053;SDS011;32811;52.382;5.270;2022-12-18T04:09:19;54.92;;;21.88;;
47053;SDS011;32811;52.382;5.270;2022-12-18T04:11:47;44.47;;;20.42;;
47053;SDS011;32811;52.382;5.270;2022-12-18T04:14:14;42.97;;;18.92;;
47053;SDS011;32811;52.382;5.270;2022-12-18T04:16:43;40.75;;;18.50;;
47053;SDS011;32811;52.382;5.270;2022-12-18T04:19:11;46.47;;;20.30;;
47053;SDS011;32811;52.382;5.270;2022-12-18T04:21:38;54.35;;;20.65;;
47053;SDS011;32811;52.382;5.270;2022-12-18T04:24:04;39.22;;;18.80;;
47053;SDS011;32811;52.382;5.270;2022-12-18T04:26:31;48.17;;;20.20;;
47053;SDS011;32811;52.382;5.270;2022-12-18T04:28:58;44.88;;;20.80;;
47053;SDS011;32811;52.382;5.270;2022-12-18T04:31:25;46.15;;;19.92;;
47053;SDS011;32811;52.382;5.270;2022-12-18T04:33:52;42.97;;;19.13;;
47053;SDS011;32811;52.382;5.270;2022-12-18T04:36:19;41.70;;;19.05;;
47053;SDS011;32811;52.382;5.270;2022-12-18T04:38:46;46.95;;;20.58;;
47053;SDS011;32811;52.382;5.270;2022-12-18T04:41:13;41.17;;;18.90;;
47053;SDS011;32811;52.382;5.270;2022-12-18T04:43:40;39.72;;;17.65;;
47053;SDS011;32811;52.382;5.270;2022-12-18T04:46:07;46.75;;;19.30;;
47053;SDS011;32811;52.382;5.270;2022-12-18T04:48:35;36.88;;;17.80;;
47053;SDS011;32811;52.382;5.270;2022-12-18T04:51:02;32.35;;;15.35;;
47053;SDS011;32811;52.382;5.270;2022-12-18T04:53:31;36.15;;;16.38;;
47053;SDS011;32811;52.382;5.270;2022-12-18T04:56:05;35.80;;;16.73;;
47053;SDS011;32811;52.382;5.270;2022-12-18T04:58:33;37.63;;;17.38;;
47053;SDS011;32811;52.382;5.270;2022-12-18T05:01:00;32.78;;;16.25;;
47053;SDS011;32811;52.382;5.270;2022-12-18T05:03:27;39.65;;;16.55;;
47053;SDS011;32811;52.382;5.270;2022-12-18T05:05:54;39.83;;;16.70;;
47053;SDS011;32811;52.382;5.270;2022-12-18T05:08:21;39.40;;;17.50;;
47053;SDS011;32811;52.382;5.270;2022-12-18T05:10:48;32.95;;;16.63;;
47053;SDS011;32811;52.382;5.270;2022-12-18T05:13:15;38.10;;;16.70;;
47053;SDS011;32811;52.382;5.270;2022-12-18T05:15:42;33.78;;;16.20;;
47053;SDS011;32811;52.382;5.270;2022-12-18T05:18:09;30.67;;;15.70;;
47053;SDS011;32811;52.382;5.270;2022-12-18T05:20:36;40.53;;;17.73;;
47053;SDS011;32811;52.382;5.270;2022-12-18T05:23:02;29.00;;;13.82;;
47053;SDS011;32811;52.382;5.270;2022-12-18T05:25:29;32.58;;;15.18;;
47053;SDS011;32811;52.382;5.270;2022-12-18T05:27:57;32.65;;;15.57;;
47053;SDS011;32811;52.382;5.270;2022-12-18T05:30:25;36.30;;;16.52;;
47053;SDS011;32811;52.382;5.270;2022-12-18T05:32:51;34.05;;;15.05;;
47053;SDS011;32811;52.382;5.270;2022-12-18T05:35:18;29.20;;;14.02;;
47053;SDS011;32811;52.382;5.270;2022-12-18T05:37:45;29.25;;;13.18;;
47053;SDS011;32811;52.382;5.270;2022-12-18T05:40:12;26.95;;;12.55;;
47053;SDS011;32811;52.382;5.270;2022-12-18T05:42:39;28.17;;;14.02;;
47053;SDS011;32811;52.382;5.270;2022-12-18T05:45:06;30.33;;;13.68;;
47053;SDS011;32811;52.382;5.270;2022-12-18T05:47:34;32.25;;;15.77;;
47053;SDS011;32811;52.382;5.270;2022-12-18T05:50:00;30.95;;;13.70;;
47053;SDS011;32811;52.382;5.270;2022-12-18T05:52:27;33.88;;;14.52;;
47053;SDS011;32811;52.382;5.270;2022-12-18T05:54:54;29.02;;;15.52;;
47053;SDS011;32811;52.382;5.270;2022-12-18T05:57:21;29.55;;;13.85;;
47053;SDS011;32811;52.382;5.270;2022-12-18T05:59:48;31.20;;;14.13;;
47053;SDS011;32811;52.382;5.270;2022-12-18T06:02:15;29.90;;;14.35;;
47053;SDS011;32811;52.382;5.270;2022-12-18T06:04:43;27.77;;;14.65;;
47053;SDS011;32811;52.382;5.270;2022-12-18T06:07:10;31.10;;;13.32;;
47053;SDS011;32811;52.382;5.270;2022-12-18T06:09:37;33.40;;;14.35;;
47053;SDS011;32811;52.382;5.270;2022-12-18T06:12:04;31.00;;;14.07;;
47053;SDS011;32811;52.382;5.270;2022-12-18T06:14:31;34.50;;;13.88;;
47053;SDS011;32811;52.382;5.270;2022-12-18T06:16:57;27.77;;;14.30;;
47053;SDS011;32811;52.382;5.270;2022-12-18T06:19:25;28.00;;;14.15;;
47053;SDS011;32811;52.382;5.270;2022-12-18T06:21:52;31.83;;;13.13;;
47053;SDS011;32811;52.382;5.270;2022-12-18T06:24:19;31.00;;;14.32;;
47053;SDS011;32811;52.382;5.270;2022-12-18T06:26:46;30.73;;;13.90;;
47053;SDS011;32811;52.382;5.270;2022-12-18T06:29:13;25.67;;;12.93;;
47053;SDS011;32811;52.382;5.270;2022-12-18T06:31:40;27.98;;;13.23;;
47053;SDS011;32811;52.382;5.270;2022-12-18T06:34:07;34.25;;;13.07;;
47053;SDS011;32811;52.382;5.270;2022-12-18T06:36:34;25.77;;;12.68;;
47053;SDS011;32811;52.382;5.270;2022-12-18T06:39:02;24.75;;;13.40;;
47053;SDS011;32811;52.382;5.270;2022-12-18T06:41:29;30.48;;;13.32;;
47053;SDS011;32811;52.382;5.270;2022-12-18T06:43:55;26.13;;;12.43;;
47053;SDS011;32811;52.382;5.270;2022-12-18T06:46:25;26.63;;;13.13;;
47053;SDS011;32811;52.382;5.270;2022-12-18T06:48:52;27.73;;;12.90;;
47053;SDS011;32811;52.382;5.270;2022-12-18T06:51:19;30.30;;;12.48;;
47053;SDS011;32811;52.382;5.270;2022-12-18T06:53:47;25.02;;;11.75;;
47053;SDS011;32811;52.382;5.270;2022-12-18T06:56:15;31.67;;;14.05;;
47053;SDS011;32811;52.382;5.270;2022-12-18T06:58:42;22.10;;;11.00;;
47053;SDS011;32811;52.382;5.270;2022-12-18T07:01:09;38.13;;;14.85;;
47053;SDS011;32811;52.382;5.270;2022-12-18T07:03:38;27.60;;;12.60;;
47053;SDS011;32811;52.382;5.270;2022-12-18T07:06:11;28.75;;;12.50;;
47053;SDS011;32811;52.382;5.270;2022-12-18T07:08:40;22.73;;;12.02;;
47053;SDS011;32811;52.382;5.270;2022-12-18T07:11:06;26.50;;;11.80;;
47053;SDS011;32811;52.382;5.270;2022-12-18T07:13:34;22.65;;;11.57;;
47053;SDS011;32811;52.382;5.270;2022-12-18T07:16:04;28.88;;;13.15;;
47053;SDS011;32811;52.382;5.270;2022-12-18T07:18:41;23.67;;;12.40;;
47053;SDS011;32811;52.382;5.270;2022-12-18T07:21:11;23.20;;;11.80;;
47053;SDS011;32811;52.382;5.270;2022-12-18T07:23:40;27.83;;;11.77;;
47053;SDS011;32811;52.382;5.270;2022-12-18T07:26:08;18.98;;;12.15;;
47053;SDS011;32811;52.382;5.270;2022-12-18T07:28:38;23.33;;;12.02;;
47053;SDS011;32811;52.382;5.270;2022-12-18T07:31:08;18.42;;;10.13;;
47053;SDS011;32811;52.382;5.270;2022-12-18T07:33:37;20.50;;;11.15;;
47053;SDS011;32811;52.382;5.270;2022-12-18T07:36:05;21.88;;;11.02;;
47053;SDS011;32811;52.382;5.270;2022-12-18T07:38:33;26.55;;;12.23;;
47053;SDS011;32811;52.382;5.270;2022-12-18T07:41:02;19.50;;;11.10;;
47053;SDS011;32811;52.382;5.270;2022-12-18T07:43:32;20.20;;;10.55;;
47053;SDS011;32811;52.382;5.270;2022-12-18T07:45:59;18.98;;;10.48;;
47053;SDS011;32811;52.382;5.270;2022-12-18T07:48:25;18.48;;;10.15;;
47053;SDS011;32811;52.382;5.270;2022-12-18T07:50:52;21.17;;;10.77;;
47053;SDS011;32811;52.382;5.270;2022-12-18T07:53:19;17.98;;;10.30;;
47053;SDS011;32811;52.382;5.270;2022-12-18T07:55:45;20.48;;;10.82;;
47053;SDS011;32811;52.382;5.270;2022-12-18T07:58:32;16.92;;;9.73;;
47053;SDS011;32811;52.382;5.270;2022-12-18T08:01:17;20.95;;;9.57;;
47053;SDS011;32811;52.382;5.270;2022-12-18T08:03:46;19.52;;;9.82;;
47053;SDS011;32811;52.382;5.270;2022-12-18T08:06:15;20.38;;;9.63;;
47053;SDS011;32811;52.382;5.270;2022-12-18T08:08:42;21.77;;;10.73;;
47053;SDS011;32811;52.382;5.270;2022-12-18T08:11:09;15.77;;;9.40;;
47053;SDS011;32811;52.382;5.270;2022-12-18T08:13:36;19.60;;;10.73;;
47053;SDS011;32811;52.382;5.270;2022-12-18T08:16:05;21.27;;;9.73;;
47053;SDS011;32811;52.382;5.270;2022-12-18T08:18:36;17.80;;;10.35;;
47053;SDS011;32811;52.382;5.270;2022-12-18T08:21:13;22.65;;;11.55;;
47053;SDS011;32811;52.382;5.270;2022-12-18T08:23:46;17.90;;;9.98;;
47053;SDS011;32811;52.382;5.270;2022-12-18T08:26:14;21.75;;;10.68;;
47053;SDS011;32811;52.382;5.270;2022-12-18T08:28:40;19.27;;;10.18;;
47053;SDS011;32811;52.382;5.270;2022-12-18T08:31:07;25.88;;;9.57;;
47053;SDS011;32811;52.382;5.270;2022-12-18T08:33:35;14.70;;;9.10;;
47053;SDS011;32811;52.382;5.270;2022-12-18T08:36:03;18.88;;;10.35;;
47053;SDS011;32811;52.382;5.270;2022-12-18T08:38:31;15.05;;;9.15;;
47053;SDS011;32811;52.382;5.270;2022-12-18T08:40:59;18.13;;;9.98;;
47053;SDS011;32811;52.382;5.270;2022-12-18T08:43:26;17.77;;;10.18;;
47053;SDS011;32811;52.382;5.270;2022-12-18T08:46:12;19.73;;;9.43;;
47053;SDS011;32811;52.382;5.270;2022-12-18T08:48:39;15.48;;;9.95;;
47053;SDS011;32811;52.382;5.270;2022-12-18T08:51:05;17.25;;;9.65;;
47053;SDS011;32811;52.382;5.270;2022-12-18T08:53:32;20.13;;;10.43;;
47053;SDS011;32811;52.382;5.270;2022-12-18T08:56:01;17.90;;;9.88;;
47053;SDS011;32811;52.382;5.270;2022-12-18T08:58:29;15.30;;;10.10;;
47053;SDS011;32811;52.382;5.270;2022-12-18T09:01:05;17.33;;;9.73;;
47053;SDS011;32811;52.382;5.270;2022-12-18T09:03:35;17.55;;;10.55;;
47053;SDS011;32811;52.382;5.270;2022-12-18T09:06:02;15.18;;;9.10;;
47053;SDS011;32811;52.382;5.270;2022-12-18T09:08:29;20.08;;;10.35;;
47053;SDS011;32811;52.382;5.270;2022-12-18T09:10:55;18.42;;;10.20;;
47053;SDS011;32811;52.382;5.270;2022-12-18T09:13:23;13.60;;;9.32;;
47053;SDS011;32811;52.382;5.270;2022-12-18T09:15:51;16.35;;;9.52;;
47053;SDS011;32811;52.382;5.270;2022-12-18T09:18:20;16.40;;;9.43;;
47053;SDS011;32811;52.382;5.270;2022-12-18T09:20:48;16.80;;;9.27;;
47053;SDS011;32811;52.382;5.270;2022-12-18T09:23:16;16.70;;;9.23;;
47053;SDS011;32811;52.382;5.270;2022-12-18T09:25:43;16.98;;;9.63;;
47053;SDS011;32811;52.382;5.270;2022-12-18T09:28:10;14.32;;;9.70;;
47053;SDS011;32811;52.382;5.270;2022-12-18T09:30:42;14.70;;;9.75;;
47053;SDS011;32811;52.382;5.270;2022-12-18T09:33:15;17.67;;;9.32;;
47053;SDS011;32811;52.382;5.270;2022-12-18T09:35:43;13.90;;;9.18;;
47053;SDS011;32811;52.382;5.270;2022-12-18T09:38:17;14.70;;;9.70;;
47053;SDS011;32811;52.382;5.270;2022-12-18T09:46:03;15.18;;;8.27;;
47053;SDS011;32811;52.382;5.270;2022-12-18T09:48:40;14.27;;;8.73;;
47053;SDS011;32811;52.382;5.270;2022-12-18T09:51:12;13.80;;;8.18;;
47053;SDS011;32811;52.382;5.270;2022-12-18T09:53:41;14.57;;;9.20;;
47053;SDS011;32811;52.382;5.270;2022-12-18T09:56:15;14.02;;;8.48;;
47053;SDS011;32811;52.382;5.270;2022-12-18T09:58:50;16.08;;;9.48;;
47053;SDS011;32811;52.382;5.270;2022-12-18T10:01:24;16.15;;;8.43;;
47053;SDS011;32811;52.382;5.270;2022-12-18T10:04:04;12.73;;;7.60;;
47053;SDS011;32811;52.382;5.270;2022-12-18T10:06:52;14.57;;;8.52;;
47053;SDS011;32811;52.382;5.270;2022-12-18T10:09:37;14.23;;;8.70;;
47053;SDS011;32811;52.382;5.270;2022-12-18T10:14:45;11.77;;;6.65;;
47053;SDS011;32811;52.382;5.270;2022-12-18T10:17:26;13.38;;;7.90;;
47053;SDS011;32811;52.382;5.270;2022-12-18T10:20:15;12.98;;;7.35;;
47053;SDS011;32811;52.382;5.270;2022-12-18T10:25:33;10.32;;;7.25;;
47053;SDS011;32811;52.382;5.270;2022-12-18T10:28:15;13.35;;;8.48;;
47053;SDS011;32811;52.382;5.270;2022-12-18T10:30:43;16.02;;;7.97;;
47053;SDS011;32811;52.382;5.270;2022-12-18T10:33:15;12.77;;;8.32;;
47053;SDS011;32811;52.382;5.270;2022-12-18T10:35:44;16.88;;;6.90;;
47053;SDS011;32811;52.382;5.270;2022-12-18T10:41:00;14.70;;;8.18;;
47053;SDS011;32811;52.382;5.270;2022-12-18T10:43:30;14.27;;;8.30;;
47053;SDS011;32811;52.382;5.270;2022-12-18T10:48:40;12.73;;;8.18;;
47053;SDS011;32811;52.382;5.270;2022-12-18T10:51:08;13.50;;;7.60;;
47053;SDS011;32811;52.382;5.270;2022-12-18T10:53:38;14.35;;;7.43;;
47053;SDS011;32811;52.382;5.270;2022-12-18T10:56:07;14.77;;;8.63;;
47053;SDS011;32811;52.382;5.270;2022-12-18T10:58:36;13.18;;;8.07;;
47053;SDS011;32811;52.382;5.270;2022-12-18T11:01:15;15.88;;;8.30;;
47053;SDS011;32811;52.382;5.270;2022-12-18T11:03:44;11.98;;;7.57;;
47053;SDS011;32811;52.382;5.270;2022-12-18T11:06:16;17.38;;;8.10;;
47053;SDS011;32811;52.382;5.270;2022-12-18T11:08:56;11.63;;;6.93;;
47053;SDS011;32811;52.382;5.270;2022-12-18T11:11:37;12.35;;;8.05;;
47053;SDS011;32811;52.382;5.270;2022-12-18T11:14:05;13.55;;;7.97;;
47053;SDS011;32811;52.382;5.270;2022-12-18T11:16:44;11.90;;;7.90;;
47053;SDS011;32811;52.382;5.270;2022-12-18T11:19:34;12.23;;;8.10;;
47053;SDS011;32811;52.382;5.270;2022-12-18T11:22:17;10.30;;;6.90;;
47053;SDS011;32811;52.382;5.270;2022-12-18T11:30:29;14.45;;;7.70;;
47053;SDS011;32811;52.382;5.270;2022-12-18T11:35:35;12.05;;;7.03;;
47053;SDS011;32811;52.382;5.270;2022-12-18T11:38:21;13.45;;;6.85;;
47053;SDS011;32811;52.382;5.270;2022-12-18T11:43:25;12.95;;;7.18;;
47053;SDS011;32811;52.382;5.270;2022-12-18T11:51:10;11.45;;;6.85;;
47053;SDS011;32811;52.382;5.270;2022-12-18T11:53:42;6.70;;;5.00;;
47053;SDS011;32811;52.382;5.270;2022-12-18T11:59:08;11.60;;;7.07;;
47053;SDS011;32811;52.382;5.270;2022-12-18T12:01:51;13.93;;;7.90;;
47053;SDS011;32811;52.382;5.270;2022-12-18T12:23:51;12.10;;;7.35;;
47053;SDS011;32811;52.382;5.270;2022-12-18T12:26:31;14.02;;;7.28;;
47053;SDS011;32811;52.382;5.270;2022-12-18T12:29:08;12.25;;;7.15;;
47053;SDS011;32811;52.382;5.270;2022-12-18T12:35:02;10.63;;;6.70;;
47053;SDS011;32811;52.382;5.270;2022-12-18T12:37:38;12.57;;;8.10;;
47053;SDS011;32811;52.382;5.270;2022-12-18T12:40:19;10.85;;;6.25;;
47053;SDS011;32811;52.382;5.270;2022-12-18T12:43:19;14.05;;;6.60;;
47053;SDS011;32811;52.382;5.270;2022-12-18T12:45:55;9.65;;;6.82;;
47053;SDS011;32811;52.382;5.270;2022-12-18T12:51:20;12.27;;;7.40;;
47053;SDS011;32811;52.382;5.270;2022-12-18T12:53:50;11.35;;;7.60;;
47053;SDS011;32811;52.382;5.270;2022-12-18T12:56:20;10.45;;;6.28;;
47053;SDS011;32811;52.382;5.270;2022-12-18T12:59:02;14.15;;;6.70;;
47053;SDS011;32811;52.382;5.270;2022-12-18T13:01:41;13.32;;;6.70;;
47053;SDS011;32811;52.382;5.270;2022-12-18T13:04:29;11.27;;;6.53;;
47053;SDS011;32811;52.382;5.270;2022-12-18T13:12:53;10.82;;;6.57;;
47053;SDS011;32811;52.382;5.270;2022-12-18T13:15:34;11.60;;;6.63;;
47053;SDS011;32811;52.382;5.270;2022-12-18T13:36:53;12.55;;;6.93;;
47053;SDS011;32811;52.382;5.270;2022-12-18T13:44:37;13.32;;;7.70;;
47053;SDS011;32811;52.382;5.270;2022-12-18T13:47:26;13.30;;;7.07;;
47053;SDS011;32811;52.382;5.270;2022-12-18T13:49:57;13.90;;;7.40;;
47053;SDS011;32811;52.382;5.270;2022-12-18T13:52:33;16.52;;;7.93;;
47053;SDS011;32811;52.382;5.270;2022-12-18T13:55:04;14.68;;;8.30;;
47053;SDS011;32811;52.382;5.270;2022-12-18T13:57:34;17.08;;;8.43;;
47053;SDS011;32811;52.382;5.270;2022-12-18T14:00:22;11.70;;;7.80;;
47053;SDS011;32811;52.382;5.270;2022-12-18T14:02:51;14.18;;;7.38;;
47053;SDS011;32811;52.382;5.270;2022-12-18T14:05:23;14.73;;;7.95;;
47053;SDS011;32811;52.382;5.270;2022-12-18T14:07:52;13.07;;;7.78;;
47053;SDS011;32811;52.382;5.270;2022-12-18T14:10:21;11.23;;;7.10;;
47053;SDS011;32811;52.382;5.270;2022-12-18T14:13:09;13.10;;;7.65;;
47053;SDS011;32811;52.382;5.270;2022-12-18T14:15:43;11.32;;;6.28;;
47053;SDS011;32811;52.382;5.270;2022-12-18T14:21:05;13.80;;;7.95;;
47053;SDS011;32811;52.382;5.270;2022-12-18T14:26:24;13.43;;;7.55;;
47053;SDS011;32811;52.382;5.270;2022-12-18T14:29:11;12.70;;;8.02;;
47053;SDS011;32811;52.382;5.270;2022-12-18T14:31:50;15.18;;;8.98;;
47053;SDS011;32811;52.382;5.270;2022-12-18T14:34:46;14.55;;;8.35;;
47053;SDS011;32811;52.382;5.270;2022-12-18T14:37:20;13.35;;;7.90;;
47053;SDS011;32811;52.382;5.270;2022-12-18T14:39:52;12.77;;;8.25;;
47053;SDS011;32811;52.382;5.270;2022-12-18T14:42:36;17.20;;;9.00;;
47053;SDS011;32811;52.382;5.270;2022-12-18T14:48:33;15.70;;;9.63;;
47053;SDS011;32811;52.382;5.270;2022-12-18T14:51:00;14.25;;;8.57;;
47053;SDS011;32811;52.382;5.270;2022-12-18T14:53:33;16.85;;;9.13;;
47053;SDS011;32811;52.382;5.270;2022-12-18T14:56:27;28.08;;;18.20;;
47053;SDS011;32811;52.382;5.270;2022-12-18T14:58:58;17.65;;;12.10;;
47053;SDS011;32811;52.382;5.270;2022-12-18T15:01:33;17.48;;;7.80;;
47053;SDS011;32811;52.382;5.270;2022-12-18T15:04:04;18.25;;;11.25;;
47053;SDS011;32811;52.382;5.270;2022-12-18T15:06:47;25.13;;;15.25;;
47053;SDS011;32811;52.382;5.270;2022-12-18T15:09:24;20.83;;;11.80;;
47053;SDS011;32811;52.382;5.270;2022-12-18T15:11:59;22.60;;;13.85;;
47053;SDS011;32811;52.382;5.270;2022-12-18T15:14:31;15.32;;;8.85;;
47053;SDS011;32811;52.382;5.270;2022-12-18T15:17:02;11.65;;;6.97;;
47053;SDS011;32811;52.382;5.270;2022-12-18T15:19:34;18.83;;;10.38;;
47053;SDS011;32811;52.382;5.270;2022-12-18T15:22:14;18.15;;;11.18;;
47053;SDS011;32811;52.382;5.270;2022-12-18T15:24:43;19.73;;;11.00;;
47053;SDS011;32811;52.382;5.270;2022-12-18T15:27:24;20.42;;;12.18;;
47053;SDS011;32811;52.382;5.270;2022-12-18T15:30:15;25.17;;;17.05;;
47053;SDS011;32811;52.382;5.270;2022-12-18T15:32:44;17.77;;;10.85;;
47053;SDS011;32811;52.382;5.270;2022-12-18T15:37:38;17.88;;;12.48;;
47053;SDS011;32811;52.382;5.270;2022-12-18T15:40:17;14.55;;;10.52;;
47053;SDS011;32811;52.382;5.270;2022-12-18T15:42:45;16.25;;;9.77;;
47053;SDS011;32811;52.382;5.270;2022-12-18T15:45:32;14.20;;;8.20;;
47053;SDS011;32811;52.382;5.270;2022-12-18T15:47:58;18.13;;;11.10;;
47053;SDS011;32811;52.382;5.270;2022-12-18T15:50:26;12.52;;;9.20;;
47053;SDS011;32811;52.382;5.270;2022-12-18T15:52:54;15.10;;;9.73;;
47053;SDS011;32811;52.382;5.270;2022-12-18T15:55:22;14.90;;;9.45;;
47053;SDS011;32811;52.382;5.270;2022-12-18T15:58:09;13.32;;;8.35;;
47053;SDS011;32811;52.382;5.270;2022-12-18T16:00:38;18.75;;;10.18;;
47053;SDS011;32811;52.382;5.270;2022-12-18T16:03:06;15.65;;;9.95;;
47053;SDS011;32811;52.382;5.270;2022-12-18T16:05:34;17.00;;;9.73;;
47053;SDS011;32811;52.382;5.270;2022-12-18T16:08:01;14.20;;;8.95;;
47053;SDS011;32811;52.382;5.270;2022-12-18T16:10:27;26.48;;;14.13;;
47053;SDS011;32811;52.382;5.270;2022-12-18T16:12:54;20.75;;;10.45;;
47053;SDS011;32811;52.382;5.270;2022-12-18T16:15:21;16.75;;;9.18;;
47053;SDS011;32811;52.382;5.270;2022-12-18T16:17:50;18.15;;;9.63;;
47053;SDS011;32811;52.382;5.270;2022-12-18T16:20:21;14.02;;;8.65;;
47053;SDS011;32811;52.382;5.270;2022-12-18T16:22:48;16.80;;;9.32;;
47053;SDS011;32811;52.382;5.270;2022-12-18T16:25:19;18.45;;;9.73;;
47053;SDS011;32811;52.382;5.270;2022-12-18T16:27:50;16.77;;;9.90;;
47053;SDS011;32811;52.382;5.270;2022-12-18T16:30:19;20.55;;;10.52;;
47053;SDS011;32811;52.382;5.270;2022-12-18T16:32:48;17.02;;;10.13;;
47053;SDS011;32811;52.382;5.270;2022-12-18T16:35:15;21.33;;;11.85;;
47053;SDS011;32811;52.382;5.270;2022-12-18T16:37:42;15.55;;;10.40;;
47053;SDS011;32811;52.382;5.270;2022-12-18T16:40:10;20.27;;;11.05;;
47053;SDS011;32811;52.382;5.270;2022-12-18T16:42:38;17.38;;;10.63;;
47053;SDS011;32811;52.382;5.270;2022-12-18T16:45:07;18.75;;;10.70;;
47053;SDS011;32811;52.382;5.270;2022-12-18T16:47:35;15.93;;;9.80;;
47053;SDS011;32811;52.382;5.270;2022-12-18T16:50:02;22.42;;;10.88;;
47053;SDS011;32811;52.382;5.270;2022-12-18T16:52:29;15.07;;;9.68;;
47053;SDS011;32811;52.382;5.270;2022-12-18T16:54:56;25.13;;;13.88;;